createdAt,value
2019-04-07T00:02:22.741Z,656.17
2019-04-07T00:04:52.280Z,667.67
2019-04-07T00:07:21.312Z,677.23
2019-04-07T00:09:50.351Z,704.07
2019-04-07T00:12:19.442Z,676.43
2019-04-07T00:14:48.706Z,608.73
2019-04-07T00:17:17.914Z,603.83
2019-04-07T00:19:47.004Z,627.87
2019-04-07T00:22:16.038Z,620.50
2019-04-07T00:24:45.061Z,585.60
2019-04-07T00:27:14.428Z,603.83
2019-04-07T00:29:44.107Z,577.80
2019-04-07T00:32:13.215Z,607.23
2019-04-07T00:34:42.381Z,618.30
2019-04-07T00:37:11.711Z,505.10
2019-04-07T00:39:42.257Z,527.57
2019-04-07T00:42:11.511Z,409.03
2019-04-07T00:44:41.109Z,412.63
2019-04-07T00:47:10.638Z,457.70
2019-04-07T00:49:40.161Z,364.53
2019-04-07T00:52:10.818Z,418.43
2019-04-07T00:54:40.260Z,392.17
2019-04-07T00:57:09.862Z,417.40
2019-04-07T00:59:38.806Z,323.53
2019-04-07T01:02:07.868Z,394.67
2019-04-07T01:04:36.920Z,438.93
2019-04-07T01:07:05.964Z,439.23
2019-04-07T01:09:35.273Z,378.67
2019-04-07T01:12:04.947Z,401.50
2019-04-07T01:14:34.042Z,329.63
2019-04-07T01:17:03.648Z,351.30
2019-04-07T01:19:33.242Z,350.93
2019-04-07T01:22:02.385Z,289.73
2019-04-07T01:24:31.581Z,317.67
2019-04-07T01:27:00.614Z,290.70
2019-04-07T01:29:29.860Z,288.57
2019-04-07T01:31:59.435Z,285.53
2019-04-07T01:34:28.890Z,228.47
2019-04-07T01:36:58.952Z,243.77
2019-04-07T01:39:28.370Z,206.17
2019-04-07T01:41:59.085Z,231.43
2019-04-07T01:44:29.761Z,251.70
2019-04-07T01:47:00.416Z,214.47
2019-04-07T01:49:31.350Z,234.63
2019-04-07T01:52:02.122Z,208.10
2019-04-07T01:54:33.035Z,168.93
2019-04-07T01:57:04.446Z,213.27
2019-04-07T01:59:35.512Z,178.30
2019-04-07T02:02:07.112Z,204.23
2019-04-07T02:04:37.857Z,153.67
2019-04-07T02:07:08.524Z,196.50
2019-04-07T02:09:39.219Z,183.47
2019-04-07T02:12:10.430Z,197.27
2019-04-07T02:14:41.847Z,178.63
2019-04-07T02:17:13.107Z,211.73
2019-04-07T02:19:44.948Z,177.43
2019-04-07T02:22:15.899Z,179.57
2019-04-07T02:24:46.888Z,171.33
2019-04-07T02:27:17.999Z,157.03
2019-04-07T02:29:48.843Z,138.70
2019-04-07T02:32:19.534Z,142.70
2019-04-07T02:34:50.922Z,127.67
2019-04-07T02:37:22.682Z,124.20
2019-04-07T02:39:54.732Z,118.50
2019-04-07T02:42:25.627Z,96.63
2019-04-07T02:44:57.365Z,103.23
2019-04-07T02:47:28.342Z,72.00
2019-04-07T02:49:57.693Z,58.93
2019-04-07T02:52:30.247Z,74.17
2019-04-07T02:55:01.118Z,74.33
2019-04-07T02:57:31.992Z,62.77
2019-04-07T03:00:02.883Z,60.87
2019-04-07T03:02:34.689Z,63.53
2019-04-07T03:05:06.473Z,65.83
2019-04-07T03:07:37.507Z,65.47
2019-04-07T03:10:09.173Z,68.43
2019-04-07T03:12:40.074Z,50.10
2019-04-07T03:15:11.152Z,48.63
2019-04-07T03:17:42.204Z,45.00
2019-04-07T03:20:13.128Z,48.00
2019-04-07T03:22:44.031Z,47.17
2019-04-07T03:25:15.583Z,48.73
2019-04-07T03:27:46.468Z,47.23
2019-04-07T03:30:17.799Z,52.50
2019-04-07T03:32:52.820Z,43.20
2019-04-07T03:35:25.297Z,37.13
2019-04-07T03:37:54.713Z,39.87
2019-04-07T03:40:25.529Z,43.70
2019-04-07T03:42:56.295Z,57.07
2019-04-07T03:45:28.673Z,46.13
2019-04-07T03:47:59.450Z,51.37
2019-04-07T03:50:30.098Z,49.50
2019-04-07T03:53:01.471Z,54.53
2019-04-07T03:55:32.336Z,66.03
2019-04-07T03:58:03.687Z,59.57
2019-04-07T04:00:36.220Z,44.50
2019-04-07T04:03:07.086Z,54.03
2019-04-07T04:05:37.767Z,54.63
2019-04-07T04:08:09.365Z,47.00
2019-04-07T04:10:40.796Z,38.50
2019-04-07T04:13:12.295Z,44.23
2019-04-07T04:15:43.565Z,36.23
2019-04-07T04:18:38.240Z,40.97
2019-04-07T04:21:09.080Z,26.10
2019-04-07T04:23:41.547Z,29.17
2019-04-07T04:26:09.613Z,26.97
2019-04-07T04:28:39.687Z,30.73
2019-04-07T04:31:09.645Z,27.97
2019-04-07T04:33:38.819Z,27.37
2019-04-07T04:36:08.525Z,27.57
2019-04-07T04:38:38.450Z,29.77
2019-04-07T04:41:07.545Z,30.70
2019-04-07T04:43:36.540Z,33.37
2019-04-07T04:46:09.399Z,28.47
2019-04-07T04:48:37.279Z,24.27
2019-04-07T04:51:35.518Z,28.43
2019-04-07T04:54:02.313Z,27.20
2019-04-07T04:56:31.344Z,38.73
2019-04-07T04:59:00.364Z,28.57
2019-04-07T05:01:29.400Z,34.57
2019-04-07T05:03:58.470Z,27.87
2019-04-07T05:06:27.777Z,47.97
2019-04-07T05:08:56.756Z,36.53
2019-04-07T05:11:26.055Z,35.67
2019-04-07T05:13:55.482Z,41.70
2019-04-07T05:16:24.619Z,42.27
2019-04-07T05:18:54.098Z,43.00
2019-04-07T05:21:23.172Z,41.13
2019-04-07T05:23:52.211Z,49.73
2019-04-07T05:26:21.246Z,59.83
2019-04-07T05:28:50.477Z,128.10
2019-04-07T05:31:19.930Z,117.90
2019-04-07T05:33:49.846Z,212.03
2019-04-07T05:36:19.482Z,258.57
2019-04-07T05:38:48.615Z,351.80
2019-04-07T05:41:18.312Z,412.97
2019-04-07T05:43:48.083Z,469.83
2019-04-07T05:46:17.751Z,589.90
2019-04-07T05:48:47.568Z,691.70
2019-04-07T05:51:17.968Z,721.57
2019-04-07T05:53:48.319Z,819.27
2019-04-07T05:56:18.559Z,942.23
2019-04-07T05:58:48.285Z,999.90
2019-04-07T06:01:22.577Z,999.90
2019-04-07T06:03:48.070Z,999.90
2019-04-07T06:06:19.098Z,977.37
2019-04-07T06:08:48.566Z,858.10
2019-04-07T06:11:18.505Z,810.20
2019-04-07T06:13:47.576Z,768.33
2019-04-07T06:16:18.525Z,741.20
2019-04-07T06:18:47.737Z,672.23
2019-04-07T06:21:17.334Z,657.97
2019-04-07T06:23:46.358Z,684.50
2019-04-07T06:26:15.404Z,772.83
2019-04-07T06:28:49.007Z,824.97
2019-04-07T06:31:15.158Z,834.97
2019-04-07T06:33:44.642Z,840.70
2019-04-07T06:36:17.512Z,884.77
2019-04-07T06:38:50.993Z,921.87
2019-04-07T06:41:16.145Z,975.67
2019-04-07T06:43:45.305Z,929.70
2019-04-07T06:46:16.202Z,909.45
2019-04-07T06:48:47.161Z,884.52
2019-04-07T06:51:18.895Z,919.25
2019-04-07T06:53:58.960Z,896.52
2019-04-07T06:56:32.195Z,832.67
2019-04-07T06:59:02.061Z,883.33
2019-04-07T07:01:32.807Z,913.03
2019-04-07T07:04:09.024Z,885.37
2019-04-07T07:06:35.764Z,879.85
2019-04-07T07:09:08.291Z,933.83
2019-04-07T07:11:42.810Z,932.80
2019-04-07T07:14:42.607Z,918.95
2019-04-07T07:17:07.535Z,949.13
2019-04-07T07:19:36.713Z,952.60
2019-04-07T07:22:12.706Z,961.77
2019-04-07T07:24:38.155Z,952.25
2019-04-07T07:27:09.228Z,958.17
2019-04-07T07:29:37.800Z,948.67
2019-04-07T07:32:06.811Z,973.65
2019-04-07T07:34:35.908Z,951.22
2019-04-07T07:37:05.229Z,950.60
2019-04-07T07:39:34.221Z,949.50
2019-04-07T07:42:03.961Z,910.45
2019-04-07T07:44:35.875Z,921.90
2019-04-07T07:47:03.653Z,914.20
2019-04-07T07:49:35.180Z,928.65
2019-04-07T07:52:03.409Z,912.57
2019-04-07T07:54:32.398Z,887.00
2019-04-07T07:57:01.409Z,911.48
2019-04-07T07:59:33.543Z,935.52
2019-04-07T08:02:01.359Z,915.60
2019-04-07T08:04:30.530Z,908.27
2019-04-07T08:07:02.156Z,925.22
2019-04-07T08:09:30.651Z,938.65
2019-04-07T08:12:01.651Z,901.30
2019-04-07T08:14:30.419Z,895.65
2019-04-07T08:17:02.260Z,912.23
2019-04-07T08:19:30.880Z,908.20
2019-04-07T08:22:00.723Z,918.82
2019-04-07T08:24:30.418Z,922.15
2019-04-07T08:27:00.534Z,911.37
2019-04-07T08:29:30.142Z,926.22
2019-04-07T08:32:00.002Z,915.38
2019-04-07T08:34:31.516Z,920.77
2019-04-07T08:37:00.776Z,935.15
2019-04-07T08:39:33.565Z,946.15
2019-04-07T08:42:01.306Z,953.48
2019-04-07T08:44:31.385Z,961.65
2019-04-07T08:47:01.300Z,962.90
2019-04-07T08:49:32.738Z,939.87
2019-04-07T08:52:04.038Z,966.50
2019-04-07T08:54:31.880Z,937.63
2019-04-07T08:57:00.881Z,969.00
2019-04-07T09:02:59.175Z,967.33
2019-04-07T09:05:20.542Z,923.60
2019-04-07T09:07:48.241Z,945.67
2019-04-07T09:10:20.651Z,913.18
2019-04-07T09:12:49.953Z,948.00
2019-04-07T09:15:21.179Z,932.55
2019-04-07T09:17:51.782Z,902.52
2019-04-07T09:20:22.428Z,967.42
2019-04-07T09:22:54.974Z,946.37
2019-04-07T09:25:26.090Z,958.00
2019-04-07T09:27:57.254Z,975.45
2019-04-07T09:30:26.328Z,950.83
2019-04-07T09:32:56.993Z,940.98
2019-04-07T09:35:27.650Z,967.07
2019-04-07T09:37:58.769Z,925.73
2019-04-07T09:40:30.316Z,942.75
2019-04-07T09:43:42.748Z,960.02
2019-04-07T09:46:13.640Z,958.90
2019-04-07T09:48:44.342Z,977.13
2019-04-07T09:51:13.545Z,945.73
2019-04-07T09:53:44.823Z,972.23
2019-04-07T09:56:16.178Z,953.42
2019-04-07T09:58:46.995Z,966.65
2019-04-07T10:01:19.970Z,995.05
2019-04-07T10:03:50.009Z,999.90
2019-04-07T10:06:20.688Z,973.70
2019-04-07T10:08:52.176Z,999.90
2019-04-07T10:11:22.846Z,992.20
2019-04-07T10:13:53.566Z,995.75
2019-04-07T10:16:24.226Z,980.95
2019-04-07T10:18:55.233Z,987.80
2019-04-07T10:21:26.905Z,963.00
2019-04-07T10:23:56.355Z,963.18
2019-04-07T10:26:27.047Z,964.05
2019-04-07T10:28:57.724Z,987.95
2019-04-07T10:31:28.392Z,970.35
2019-04-07T10:33:59.063Z,952.70
2019-04-07T10:36:29.711Z,916.80
2019-04-07T10:39:00.819Z,895.08
2019-04-07T10:41:33.404Z,999.90
2019-04-07T10:44:04.937Z,972.78
2019-04-07T10:46:36.242Z,939.17
2019-04-07T10:49:07.049Z,939.25
2019-04-07T10:51:37.701Z,963.92
2019-04-07T10:54:06.687Z,917.80
2019-04-07T10:56:37.360Z,925.68
2019-04-07T10:59:07.986Z,999.90
2019-04-07T11:01:38.669Z,961.50
2019-04-07T11:04:09.462Z,946.30
2019-04-07T11:06:40.602Z,966.32
2019-04-07T11:09:11.610Z,933.73
2019-04-07T11:11:43.712Z,928.82
2019-04-07T11:14:14.395Z,895.65
2019-04-07T11:16:45.282Z,889.78
2019-04-07T11:19:35.563Z,934.83
2019-04-07T11:22:05.674Z,895.52
2019-04-07T11:24:36.994Z,870.25
2019-04-07T11:27:08.139Z,901.52
2019-04-07T11:29:39.659Z,951.90
2019-04-07T11:32:10.474Z,884.85
2019-04-07T11:34:41.401Z,910.13
2019-04-07T11:37:12.920Z,961.00
2019-04-07T11:39:44.693Z,924.23
2019-04-07T11:42:15.372Z,883.80
2019-04-07T11:44:46.778Z,950.07
2019-04-07T11:47:17.563Z,868.48
2019-04-07T11:49:48.516Z,840.95
2019-04-07T11:52:19.868Z,872.78
2019-04-07T11:54:51.149Z,874.62
2019-04-07T11:57:22.572Z,943.22
2019-04-07T11:59:54.020Z,852.35
2019-04-07T12:02:24.878Z,872.60
2019-04-07T12:04:55.547Z,888.87
2019-04-07T12:07:26.288Z,901.73
2019-04-07T12:09:56.967Z,884.35
2019-04-07T12:12:28.878Z,930.35
2019-04-07T12:14:59.604Z,908.45
2019-04-07T12:17:30.267Z,921.37
2019-04-07T12:20:00.956Z,894.95
2019-04-07T12:22:30.674Z,962.15
2019-04-07T12:25:03.213Z,920.73
2019-04-07T12:27:34.506Z,883.65
2019-04-07T12:30:06.430Z,944.73
2019-04-07T12:32:37.702Z,920.83
2019-04-07T12:35:08.404Z,915.53
2019-04-07T12:37:42.028Z,941.90
2019-04-07T12:40:12.898Z,914.95
2019-04-07T12:42:43.584Z,919.82
2019-04-07T12:45:14.518Z,941.87
2019-04-07T12:47:46.199Z,954.65
2019-04-07T12:50:18.889Z,917.22
2019-04-07T12:52:49.280Z,962.03
2019-04-07T12:55:20.766Z,959.45
2019-04-07T12:57:52.080Z,964.55
2019-04-07T13:00:24.870Z,952.10
2019-04-07T13:02:58.564Z,910.35
2019-04-07T13:05:29.764Z,890.23
2019-04-07T13:08:00.512Z,999.90
2019-04-07T13:10:32.497Z,928.10
2019-04-07T13:13:03.768Z,896.23
2019-04-07T13:15:34.438Z,999.90
2019-04-07T13:18:07.210Z,996.52
2019-04-07T13:20:37.497Z,983.42
2019-04-07T13:23:08.247Z,919.95
2019-04-07T13:25:39.482Z,952.97
2019-04-07T13:28:10.961Z,972.87
2019-04-07T13:30:41.725Z,999.90
2019-04-07T13:33:12.383Z,964.65
2019-04-07T13:35:43.076Z,999.90
2019-04-07T13:38:13.754Z,966.55
2019-04-07T13:40:46.912Z,956.42
2019-04-07T13:43:17.550Z,904.23
2019-04-07T13:45:48.282Z,914.40
2019-04-07T13:48:20.823Z,961.43
2019-04-07T13:50:49.661Z,912.92
2019-04-07T13:53:20.706Z,951.90
2019-04-07T13:55:52.034Z,953.65
2019-04-07T13:58:23.863Z,926.85
2019-04-07T14:00:55.804Z,934.67
2019-04-07T14:03:26.674Z,999.90
2019-04-07T14:05:57.926Z,973.42
2019-04-07T14:08:29.924Z,999.90
2019-04-07T14:11:01.499Z,978.42
2019-04-07T14:13:31.149Z,959.28
2019-04-07T14:16:01.936Z,947.93
2019-04-07T14:18:32.605Z,981.75
2019-04-07T14:21:04.002Z,933.92
2019-04-07T14:23:35.323Z,970.55
2019-04-07T14:26:06.740Z,999.90
2019-04-07T14:28:37.444Z,979.08
2019-04-07T14:31:09.283Z,977.00
2019-04-07T14:33:41.263Z,981.98
2019-04-07T14:36:12.891Z,950.73
2019-04-07T14:38:43.551Z,949.27
2019-04-07T14:41:14.242Z,954.45
2019-04-07T14:43:44.871Z,897.95
2019-04-07T14:46:16.199Z,920.55
2019-04-07T14:48:45.441Z,972.80
2019-04-07T14:51:16.287Z,954.40
2019-04-07T14:53:47.310Z,993.07
2019-04-07T14:56:18.703Z,959.05
2019-04-07T14:58:52.579Z,954.20
2019-04-07T15:01:22.365Z,980.93
2019-04-07T15:03:52.455Z,953.58
2019-04-07T15:06:21.732Z,946.95
2019-04-07T15:08:52.416Z,952.40
2019-04-07T15:11:21.361Z,937.88
2019-04-07T15:13:50.592Z,962.42
2019-04-07T15:16:19.707Z,991.38
2019-04-07T15:18:50.126Z,993.80
2019-04-07T15:21:19.962Z,946.83
2019-04-07T15:23:48.956Z,920.25
2019-04-07T15:26:18.046Z,924.70
2019-04-07T15:28:47.008Z,991.53
2019-04-07T15:31:18.328Z,938.92
2019-04-07T15:33:46.818Z,946.67
2019-04-07T15:36:18.775Z,987.15
2019-04-07T15:38:47.579Z,962.30
2019-04-07T15:41:18.237Z,945.12
2019-04-07T15:43:47.157Z,946.40
2019-04-07T15:46:18.069Z,999.90
2019-04-07T15:48:48.425Z,957.40
2019-04-07T15:51:17.623Z,993.67
2019-04-07T15:53:51.344Z,999.90
2019-04-07T15:56:18.822Z,963.50
2019-04-07T15:58:48.403Z,958.50
2019-04-07T16:01:17.520Z,938.92
2019-04-07T16:03:50.539Z,953.52
2019-04-07T16:06:17.480Z,938.38
2019-04-07T16:08:46.851Z,950.60
2019-04-07T16:11:16.833Z,923.60
2019-04-07T16:13:47.527Z,999.90
2019-04-07T16:16:16.613Z,937.48
2019-04-07T16:18:46.568Z,924.75
2019-04-07T16:21:16.290Z,979.27
2019-04-07T16:23:48.754Z,945.88
2019-04-07T16:26:16.063Z,938.15
2019-04-07T16:28:46.464Z,922.08
2019-04-07T16:31:16.725Z,915.87
2019-04-07T16:33:46.499Z,932.58
2019-04-07T16:36:15.735Z,906.08
2019-04-07T16:38:44.753Z,939.58
2019-04-07T16:41:14.781Z,916.75
2019-04-07T16:43:44.000Z,868.65
2019-04-07T16:46:19.654Z,919.85
2019-04-07T16:48:43.659Z,891.00
2019-04-07T16:51:13.418Z,906.90
2019-04-07T16:53:43.344Z,912.50
2019-04-07T16:56:13.462Z,943.10
2019-04-07T16:58:42.494Z,908.87
2019-04-07T17:01:13.178Z,894.35
2019-04-07T17:03:43.084Z,938.03
2019-04-07T17:06:12.441Z,912.00
2019-04-07T17:08:42.242Z,895.37
2019-04-07T17:11:11.543Z,906.00
2019-04-07T17:13:42.687Z,932.20
2019-04-07T17:16:12.208Z,897.27
2019-04-07T17:18:43.068Z,920.35
2019-04-07T17:21:15.090Z,891.40
2019-04-07T17:23:45.369Z,905.72
2019-04-07T17:26:14.640Z,881.53
2019-04-07T17:28:46.119Z,904.90
2019-04-07T17:31:14.460Z,895.77
2019-04-07T17:33:43.478Z,882.40
2019-04-07T17:36:15.376Z,890.55
2019-04-07T17:38:45.323Z,892.42
2019-04-07T17:41:17.202Z,889.08
2019-04-07T17:43:54.097Z,890.53
2019-04-07T17:46:19.183Z,892.07
2019-04-07T17:48:53.327Z,900.35
2019-04-07T17:51:20.420Z,865.87
2019-04-07T17:53:51.728Z,898.32
2019-04-07T17:56:22.498Z,866.98
2019-04-07T17:58:53.443Z,884.70
2019-04-07T18:01:24.925Z,854.40
2019-04-07T18:03:56.318Z,855.75
2019-04-07T18:06:30.862Z,847.72
2019-04-07T18:09:06.210Z,857.67
2019-04-07T18:11:29.325Z,848.60
2019-04-07T18:14:01.125Z,821.65
2019-04-07T18:16:32.628Z,840.50
2019-04-07T18:19:03.843Z,854.12
2019-04-07T18:21:34.636Z,844.28
2019-04-07T18:24:05.343Z,840.62
2019-04-07T18:26:39.648Z,842.03
2019-04-07T18:29:06.919Z,852.20
2019-04-07T18:31:40.195Z,834.63
2019-04-07T18:34:10.043Z,827.70
2019-04-07T18:36:40.676Z,817.77
2019-04-07T18:39:11.336Z,803.50
2019-04-07T18:41:42.148Z,826.70
2019-04-07T18:44:12.945Z,839.27
2019-04-07T18:46:47.783Z,791.17
2019-04-07T18:49:16.772Z,800.50
2019-04-07T18:52:11.159Z,788.80
2019-04-07T18:54:42.385Z,739.70
2019-04-07T18:57:11.908Z,795.17
2019-04-07T18:59:43.291Z,771.27
2019-04-07T19:02:16.263Z,790.83
2019-04-07T19:04:45.646Z,772.10
2019-04-07T19:07:17.283Z,761.60
2019-04-07T19:09:49.751Z,763.47
2019-04-07T19:12:22.949Z,763.93
2019-04-07T19:15:01.626Z,756.80
2019-04-07T19:17:25.573Z,768.17
2019-04-07T19:19:57.454Z,707.87
2019-04-07T19:22:28.325Z,725.10
2019-04-07T19:24:59.303Z,743.40
2019-04-07T19:27:31.285Z,749.60
2019-04-07T19:30:02.135Z,748.97
2019-04-07T19:32:34.253Z,753.90
2019-04-07T19:35:05.929Z,742.63
2019-04-07T19:37:37.728Z,720.00
2019-04-07T19:40:08.458Z,710.87
2019-04-07T19:42:41.719Z,708.70
2019-04-07T19:45:11.518Z,698.47
2019-04-07T19:47:42.175Z,709.17
2019-04-07T19:50:13.179Z,709.23
2019-04-07T19:52:43.852Z,724.57
2019-04-07T19:55:14.530Z,671.10
2019-04-07T19:57:45.435Z,682.43
2019-04-07T20:00:21.915Z,691.47
2019-04-07T20:02:48.867Z,690.60
2019-04-07T20:05:19.805Z,682.97
2019-04-07T20:07:50.559Z,691.53
2019-04-07T20:10:23.805Z,680.63
2019-04-07T20:12:54.162Z,693.47
2019-04-07T20:15:24.845Z,662.77
2019-04-07T20:17:56.452Z,665.40
2019-04-07T20:20:28.008Z,666.03
2019-04-07T20:22:58.965Z,627.20
2019-04-07T20:25:31.126Z,655.87
2019-04-07T20:28:02.740Z,639.57
2019-04-07T20:30:33.666Z,672.20
2019-04-07T20:33:04.382Z,659.50
2019-04-07T20:35:35.064Z,671.20
2019-04-07T20:38:06.272Z,691.83
2019-04-07T20:40:39.638Z,748.70
2019-04-07T20:43:10.144Z,714.73
2019-04-07T20:45:40.896Z,736.23
2019-04-07T20:48:13.583Z,714.57
2019-04-07T20:53:39.448Z,788.07
2019-04-07T20:56:12.910Z,700.87
2019-04-07T20:58:49.764Z,778.83
2019-04-07T21:01:18.815Z,718.30
2019-04-07T21:03:49.605Z,773.80
2019-04-07T21:06:19.363Z,765.73
2019-04-07T21:08:50.011Z,767.63
2019-04-07T21:11:21.567Z,809.07
2019-04-07T21:13:52.493Z,786.83
2019-04-07T21:16:27.574Z,817.37
2019-04-07T21:18:56.384Z,856.70
2019-04-07T21:21:27.022Z,813.67
2019-04-07T21:23:57.774Z,852.70
2019-04-07T21:26:29.784Z,871.17
2019-04-07T21:29:00.787Z,897.63
2019-04-07T21:31:31.536Z,915.10
2019-04-07T21:34:02.403Z,831.77
2019-04-07T21:36:32.149Z,846.17
2019-04-07T21:39:02.889Z,905.20
2019-04-07T21:41:34.560Z,951.33
2019-04-07T21:44:05.980Z,855.67
2019-04-07T21:46:36.766Z,976.77
2019-04-07T21:49:07.654Z,998.90
2019-04-07T21:51:38.390Z,910.67
2019-04-07T21:54:09.787Z,894.07
2019-04-07T21:56:43.138Z,962.67
2019-04-07T21:59:13.997Z,976.20
2019-04-07T22:01:44.676Z,961.47
2019-04-07T22:04:18.038Z,953.00
2019-04-07T22:06:48.612Z,928.23
2019-04-07T22:09:20.556Z,935.30
2019-04-07T22:11:49.801Z,970.77
2019-04-07T22:14:18.934Z,895.50
2019-04-07T22:16:49.103Z,894.13
2019-04-07T22:19:18.257Z,895.97
2019-04-07T22:21:48.053Z,943.10
2019-04-07T22:24:17.113Z,929.80
2019-04-07T22:26:49.076Z,928.53
2019-04-07T22:29:17.046Z,956.90
2019-04-07T22:31:47.946Z,957.63
2019-04-07T22:34:17.255Z,982.33
2019-04-07T22:36:48.034Z,999.90
2019-04-07T22:39:18.366Z,990.73
2019-04-07T22:41:48.330Z,984.83
2019-04-07T22:44:19.898Z,992.90
2019-04-07T22:46:50.951Z,999.90
2019-04-07T22:49:19.764Z,999.90
2019-04-07T22:51:49.783Z,999.90
2019-04-07T22:54:19.547Z,999.90
2019-04-07T22:56:48.802Z,999.90
2019-04-07T22:59:18.242Z,999.90
2019-04-07T23:01:47.354Z,999.90
2019-04-07T23:04:16.737Z,999.90
2019-04-07T23:06:45.709Z,999.90
2019-04-07T23:09:15.544Z,999.90
2019-04-07T23:11:44.887Z,999.90
2019-04-07T23:14:14.032Z,999.90
2019-04-07T23:16:43.121Z,999.90
2019-04-07T23:19:12.410Z,999.90
2019-04-07T23:21:41.750Z,999.90
2019-04-07T23:24:11.023Z,999.90
2019-04-07T23:26:40.492Z,999.90
2019-04-07T23:29:10.050Z,999.90
2019-04-07T23:31:39.203Z,999.90
2019-04-07T23:34:08.500Z,999.90
2019-04-07T23:36:38.248Z,999.90
2019-04-07T23:39:07.476Z,999.90
2019-04-07T23:41:37.287Z,999.90
2019-04-07T23:44:07.318Z,999.90
2019-04-07T23:46:36.889Z,999.90
2019-04-07T23:49:05.923Z,999.90
2019-04-07T23:51:35.178Z,999.90
2019-04-07T23:54:07.253Z,999.90
2019-04-07T23:56:37.040Z,999.90
2019-04-07T23:59:06.309Z,993.67
